ARG1431 SAZN-SAME
Flight info
| Callsign | ARG1431 |
|---|---|
| Flight time | 1h 3m |
| Altitude | FL380 |
| Route | KOTO3C KOTOG ARVET UW37 ESITO |
| Aircraft | B737/M-SDE2E3FGHIRWXY/LB1 |
Departure
| Time | 2026-05-04 16:31 |
|---|---|
| Airport | Presidente Perón International Airport (SAZN) |
Arrival
| Time | 2026-05-04 17:34 |
|---|---|
| Airport | Governor Francisco Gabrielli International Airport (SAME) |
| Time | Latitude | Longitude | Altitude | Speed | Heading |
|---|---|---|---|---|---|
| 2026-05-04 15:51 | -38.95159 | -68.14160 | 888 ft | 0 kts | 179° |
| 2026-05-04 16:22 | -38.95141 | -68.14160 | 887 ft | 2 kts | 179° |
| 2026-05-04 16:22 | -38.95100 | -68.14176 | 887 ft | 2 kts | 127° |
| 2026-05-04 16:23 | -38.95093 | -68.14209 | 888 ft | 0 kts | 90° |
| 2026-05-04 16:27 | -38.95093 | -68.14176 | 889 ft | 3 kts | 90° |
| 2026-05-04 16:28 | -38.95053 | -68.14117 | 889 ft | 0 kts | 0° |
| 2026-05-04 16:29 | -38.94967 | -68.14117 | 889 ft | 7 kts | 0° |
| 2026-05-04 16:30 | -38.94901 | -68.14920 | 889 ft | 105 kts | 271° |
| 2026-05-04 16:31 | -38.94900 | -68.17553 | 1548 ft | 161 kts | 270° |
| 2026-05-04 16:31 | -38.94902 | -68.22086 | 3274 ft | 187 kts | 271° |
| 2026-05-04 16:32 | -38.94830 | -68.27561 | 4916 ft | 223 kts | 271° |
| 2026-05-04 16:33 | -38.94472 | -68.31430 | 6358 ft | 231 kts | 300° |
| 2026-05-04 16:33 | -38.91746 | -68.33876 | 7601 ft | 260 kts | 339° |
| 2026-05-04 16:34 | -38.88132 | -68.33439 | 9487 ft | 274 kts | 8° |
| 2026-05-04 16:34 | -38.86308 | -68.32699 | 10209 ft | 283 kts | 8° |
| 2026-05-04 16:35 | -38.80133 | -68.30457 | 11604 ft | 334 kts | 6° |
| 2026-05-04 16:35 | -38.73155 | -68.28041 | 13772 ft | 358 kts | 5° |
| 2026-05-04 16:36 | -38.70745 | -68.27205 | 14512 ft | 365 kts | 6° |
| 2026-05-04 16:36 | -38.65763 | -68.25487 | 16067 ft | 377 kts | 6° |
| 2026-05-04 16:37 | -38.60633 | -68.23721 | 17482 ft | 390 kts | 6° |
| 2026-05-04 16:37 | -38.58011 | -68.22819 | 18179 ft | 396 kts | 6° |
| 2026-05-04 16:37 | -38.52638 | -68.20972 | 19565 ft | 406 kts | 6° |
| 2026-05-04 16:38 | -38.47123 | -68.19168 | 21003 ft | 410 kts | 3° |
| 2026-05-04 16:39 | -38.38673 | -68.18515 | 22798 ft | 408 kts | 348° |
| 2026-05-04 16:39 | -38.32982 | -68.18909 | 24003 ft | 416 kts | 347° |
| 2026-05-04 16:40 | -38.27143 | -68.19336 | 25229 ft | 423 kts | 347° |
| 2026-05-04 16:40 | -38.21232 | -68.19723 | 26315 ft | 432 kts | 347° |
| 2026-05-04 16:41 | -38.15204 | -68.20086 | 27426 ft | 438 kts | 347° |
| 2026-05-04 16:41 | -38.05946 | -68.20622 | 29026 ft | 447 kts | 348° |
| 2026-05-04 16:42 | -37.96503 | -68.21161 | 30375 ft | 458 kts | 348° |
| 2026-05-04 16:43 | -37.90194 | -68.21505 | 31729 ft | 453 kts | 347° |
| 2026-05-04 16:43 | -37.83916 | -68.21847 | 32869 ft | 449 kts | 347° |
| 2026-05-04 16:43 | -37.80809 | -68.22019 | 33342 ft | 448 kts | 347° |
| 2026-05-04 16:44 | -37.68507 | -68.22709 | 35370 ft | 442 kts | 346° |
| 2026-05-04 16:45 | -37.62414 | -68.23048 | 36561 ft | 434 kts | 346° |
| 2026-05-04 16:46 | -37.53382 | -68.23564 | 37544 ft | 437 kts | 346° |
| 2026-05-04 16:46 | -37.47340 | -68.23907 | 37847 ft | 434 kts | 346° |
| 2026-05-04 16:47 | -37.35299 | -68.24587 | 37848 ft | 436 kts | 346° |
| 2026-05-04 16:48 | -37.23257 | -68.25253 | 37849 ft | 433 kts | 346° |
| 2026-05-04 16:49 | -37.11273 | -68.25923 | 37853 ft | 434 kts | 346° |
| 2026-05-04 16:50 | -36.99256 | -68.26586 | 37857 ft | 432 kts | 346° |
| 2026-05-04 16:51 | -36.90245 | -68.27087 | 37855 ft | 433 kts | 347° |
| 2026-05-04 16:52 | -36.78186 | -68.27751 | 37857 ft | 433 kts | 347° |
| 2026-05-04 16:53 | -36.69199 | -68.28242 | 37865 ft | 433 kts | 347° |
| 2026-05-04 16:54 | -36.57185 | -68.28902 | 37871 ft | 433 kts | 347° |
| 2026-05-04 16:55 | -36.39147 | -68.29885 | 37883 ft | 433 kts | 347° |
| 2026-05-04 16:56 | -36.24098 | -68.30707 | 37895 ft | 434 kts | 348° |
| 2026-05-04 16:57 | -36.15093 | -68.31191 | 37900 ft | 431 kts | 348° |
| 2026-05-04 16:58 | -36.03102 | -68.31839 | 37898 ft | 431 kts | 348° |
| 2026-05-04 17:00 | -35.85080 | -68.32807 | 37921 ft | 434 kts | 348° |
| 2026-05-04 17:01 | -35.70059 | -68.33608 | 37942 ft | 432 kts | 348° |
| 2026-05-04 17:02 | -35.58071 | -68.34248 | 37944 ft | 431 kts | 348° |
| 2026-05-04 17:03 | -35.49079 | -68.34726 | 37942 ft | 432 kts | 348° |
| 2026-05-04 17:03 | -35.40092 | -68.35202 | 37921 ft | 432 kts | 349° |
| 2026-05-04 17:04 | -35.28141 | -68.35836 | 37887 ft | 431 kts | 349° |
| 2026-05-04 17:05 | -35.16182 | -68.36467 | 37882 ft | 430 kts | 349° |
| 2026-05-04 17:06 | -35.07234 | -68.36936 | 37878 ft | 429 kts | 349° |
| 2026-05-04 17:07 | -34.99252 | -68.37360 | 37879 ft | 430 kts | 349° |
| 2026-05-04 17:07 | -34.92302 | -68.37723 | 37877 ft | 429 kts | 349° |
| 2026-05-04 17:08 | -34.83359 | -68.38191 | 37864 ft | 429 kts | 349° |
| 2026-05-04 17:09 | -34.77382 | -68.38505 | 37862 ft | 430 kts | 349° |
| 2026-05-04 17:09 | -34.71396 | -68.38815 | 37853 ft | 428 kts | 349° |
| 2026-05-04 17:10 | -34.56836 | -68.40964 | 37252 ft | 412 kts | 330° |
| 2026-05-04 17:11 | -34.54275 | -68.42439 | 36521 ft | 406 kts | 325° |
| 2026-05-04 17:11 | -34.51798 | -68.44095 | 35584 ft | 408 kts | 323° |
| 2026-05-04 17:11 | -34.46894 | -68.47597 | 33682 ft | 414 kts | 323° |
| 2026-05-04 17:12 | -34.44414 | -68.49367 | 32889 ft | 415 kts | 323° |
| 2026-05-04 17:12 | -34.39493 | -68.52819 | 31832 ft | 405 kts | 324° |
| 2026-05-04 17:13 | -34.32282 | -68.57799 | 30205 ft | 392 kts | 324° |
| 2026-05-04 17:14 | -34.25282 | -68.62606 | 28615 ft | 381 kts | 324° |
| 2026-05-04 17:14 | -34.23000 | -68.64171 | 28092 ft | 377 kts | 324° |
| 2026-05-04 17:14 | -34.18464 | -68.67278 | 27065 ft | 374 kts | 324° |
| 2026-05-04 17:15 | -34.16192 | -68.68837 | 26552 ft | 378 kts | 324° |
| 2026-05-04 17:15 | -34.11730 | -68.71884 | 25797 ft | 364 kts | 325° |
| 2026-05-04 17:16 | -34.07336 | -68.74884 | 24636 ft | 362 kts | 325° |
| 2026-05-04 17:16 | -34.00831 | -68.79316 | 23104 ft | 353 kts | 325° |
| 2026-05-04 17:17 | -33.98696 | -68.80771 | 22548 ft | 352 kts | 325° |
| 2026-05-04 17:17 | -33.92352 | -68.85026 | 21095 ft | 345 kts | 328° |
| 2026-05-04 17:18 | -33.90126 | -68.86113 | 20576 ft | 349 kts | 338° |
| 2026-05-04 17:18 | -33.85250 | -68.86642 | 19628 ft | 357 kts | 357° |
| 2026-05-04 17:19 | -33.80350 | -68.86099 | 18738 ft | 351 kts | 359° |
| 2026-05-04 17:19 | -33.75519 | -68.85507 | 17813 ft | 346 kts | 359° |
| 2026-05-04 17:20 | -33.70762 | -68.85007 | 16931 ft | 340 kts | 358° |
| 2026-05-04 17:20 | -33.66090 | -68.84573 | 16072 ft | 334 kts | 358° |
| 2026-05-04 17:20 | -33.63776 | -68.84365 | 15616 ft | 333 kts | 358° |
| 2026-05-04 17:21 | -33.59178 | -68.83953 | 14732 ft | 329 kts | 359° |
| 2026-05-04 17:21 | -33.54635 | -68.83542 | 13876 ft | 324 kts | 359° |
| 2026-05-04 17:22 | -33.51664 | -68.83272 | 13329 ft | 320 kts | 360° |
| 2026-05-04 17:22 | -33.50178 | -68.83137 | 13020 ft | 320 kts | 360° |
| 2026-05-04 17:23 | -33.43600 | -68.82541 | 11781 ft | 313 kts | 1° |
| 2026-05-04 17:23 | -33.41436 | -68.82345 | 11351 ft | 311 kts | 2° |
| 2026-05-04 17:23 | -33.37124 | -68.81956 | 10542 ft | 307 kts | 2° |
| 2026-05-04 17:24 | -33.35012 | -68.81765 | 10227 ft | 300 kts | 3° |
| 2026-05-04 17:24 | -33.29106 | -68.81228 | 9786 ft | 273 kts | 3° |
| 2026-05-04 17:25 | -33.27232 | -68.81060 | 9546 ft | 267 kts | 4° |
| 2026-05-04 17:25 | -33.23569 | -68.80729 | 9067 ft | 258 kts | 4° |
| 2026-05-04 17:26 | -33.20033 | -68.80411 | 8506 ft | 253 kts | 4° |
| 2026-05-04 17:26 | -33.14845 | -68.79944 | 7440 ft | 246 kts | 5° |
| 2026-05-04 17:27 | -33.11473 | -68.79680 | 6888 ft | 235 kts | 2° |
| 2026-05-04 17:27 | -33.08308 | -68.79652 | 6506 ft | 221 kts | 1° |
| 2026-05-04 17:28 | -33.05282 | -68.79620 | 6030 ft | 214 kts | 2° |
| 2026-05-04 17:29 | -33.01067 | -68.79526 | 5515 ft | 191 kts | 2° |
| 2026-05-04 17:29 | -32.97305 | -68.79430 | 5033 ft | 169 kts | 2° |
| 2026-05-04 17:30 | -32.94165 | -68.79466 | 4698 ft | 140 kts | 3° |
| 2026-05-04 17:31 | -32.92223 | -68.79370 | 4286 ft | 137 kts | 4° |
| 2026-05-04 17:31 | -32.89271 | -68.79416 | 3301 ft | 141 kts | 3° |
| 2026-05-04 17:32 | -32.87326 | -68.79352 | 2882 ft | 134 kts | 2° |
| 2026-05-04 17:33 | -32.84495 | -68.79305 | 2369 ft | 138 kts | 2° |
| 2026-05-04 17:33 | -32.83616 | -68.79289 | 2335 ft | 98 kts | 0° |
| 2026-05-04 17:34 | -32.82828 | -68.79278 | 2331 ft | 20 kts | 1° |
| 2026-05-04 17:34 | -32.82686 | -68.79277 | 2329 ft | 21 kts | 0° |
| 2026-05-04 17:35 | -32.82550 | -68.79368 | 2326 ft | 7 kts | 254° |
| 2026-05-04 17:35 | -32.82615 | -68.79458 | 2327 ft | 8 kts | 225° |
| 2026-05-04 17:35 | -32.82649 | -68.79502 | 2328 ft | 7 kts | 238° |
| 2026-05-04 17:36 | -32.82666 | -68.79550 | 2329 ft | 6 kts | 249° |
| 2026-05-04 17:36 | -32.82676 | -68.79604 | 2329 ft | 7 kts | 269° |
| 2026-05-04 17:36 | -32.82674 | -68.79658 | 2329 ft | 7 kts | 271° |
| 2026-05-04 17:36 | -32.82691 | -68.79700 | 2329 ft | 5 kts | 201° |
| 2026-05-04 17:37 | -32.82720 | -68.79712 | 2329 ft | 4 kts | 233° |
| 2026-05-04 17:37 | -32.82725 | -68.79745 | 2329 ft | 4 kts | 269° |
| 2026-05-04 17:37 | -32.82725 | -68.79776 | 2329 ft | 2 kts | 271° |
| 2026-05-04 17:37 | -32.82725 | -68.79777 | 2329 ft | 0 kts | 270° |